sensor_id;sensor_type;location;lat;lon;timestamp;P1;durP1;ratioP1;P2;durP2;ratioP2
16139;SDS011;8175;49.326;12.690;2023-07-22T04:02:38;7.27;;;6.57;;
16139;SDS011;8175;49.326;12.690;2023-07-22T04:05:03;7.80;;;6.93;;
16139;SDS011;8175;49.326;12.690;2023-07-22T04:07:30;9.07;;;7.87;;
16139;SDS011;8175;49.326;12.690;2023-07-22T04:15:14;10.77;;;9.20;;
16139;SDS011;8175;49.326;12.690;2023-07-22T04:22:32;8.57;;;6.87;;
16139;SDS011;8175;49.326;12.690;2023-07-22T04:24:58;8.87;;;7.07;;
16139;SDS011;8175;49.326;12.690;2023-07-22T04:27:24;9.47;;;7.77;;
16139;SDS011;8175;49.326;12.690;2023-07-22T04:29:51;8.60;;;7.00;;
16139;SDS011;8175;49.326;12.690;2023-07-22T04:32:18;8.07;;;6.97;;
16139;SDS011;8175;49.326;12.690;2023-07-22T04:34:43;8.60;;;7.70;;
16139;SDS011;8175;49.326;12.690;2023-07-22T04:37:09;7.33;;;6.63;;
16139;SDS011;8175;49.326;12.690;2023-07-22T04:39:35;7.97;;;5.40;;
16139;SDS011;8175;49.326;12.690;2023-07-22T04:42:01;6.87;;;6.03;;
16139;SDS011;8175;49.326;12.690;2023-07-22T04:44:27;7.07;;;5.43;;
16139;SDS011;8175;49.326;12.690;2023-07-22T04:46:53;5.97;;;5.30;;
16139;SDS011;8175;49.326;12.690;2023-07-22T04:49:19;6.33;;;5.73;;
16139;SDS011;8175;49.326;12.690;2023-07-22T04:51:45;6.93;;;5.73;;
16139;SDS011;8175;49.326;12.690;2023-07-22T04:54:11;5.67;;;5.00;;
16139;SDS011;8175;49.326;12.690;2023-07-22T04:56:37;5.47;;;4.97;;
16139;SDS011;8175;49.326;12.690;2023-07-22T04:59:03;5.60;;;5.03;;
16139;SDS011;8175;49.326;12.690;2023-07-22T05:01:29;5.00;;;4.43;;
16139;SDS011;8175;49.326;12.690;2023-07-22T05:03:55;3.87;;;3.53;;
16139;SDS011;8175;49.326;12.690;2023-07-22T05:06:21;5.40;;;4.30;;
16139;SDS011;8175;49.326;12.690;2023-07-22T05:08:46;4.43;;;4.03;;
16139;SDS011;8175;49.326;12.690;2023-07-22T05:11:12;6.70;;;4.50;;
16139;SDS011;8175;49.326;12.690;2023-07-22T05:13:37;5.07;;;3.90;;
16139;SDS011;8175;49.326;12.690;2023-07-22T05:16:03;5.00;;;4.03;;
16139;SDS011;8175;49.326;12.690;2023-07-22T05:18:29;4.53;;;3.97;;
16139;SDS011;8175;49.326;12.690;2023-07-22T05:20:54;3.87;;;3.57;;
16139;SDS011;8175;49.326;12.690;2023-07-22T05:23:20;3.50;;;3.20;;
16139;SDS011;8175;49.326;12.690;2023-07-22T05:25:52;3.77;;;3.47;;
16139;SDS011;8175;49.326;12.690;2023-07-22T05:28:18;3.70;;;3.40;;
16139;SDS011;8175;49.326;12.690;2023-07-22T05:30:44;3.33;;;3.03;;
16139;SDS011;8175;49.326;12.690;2023-07-22T05:33:10;4.53;;;3.33;;
16139;SDS011;8175;49.326;12.690;2023-07-22T05:35:36;3.90;;;3.50;;
16139;SDS011;8175;49.326;12.690;2023-07-22T05:38:01;3.50;;;3.03;;
16139;SDS011;8175;49.326;12.690;2023-07-22T05:40:29;3.70;;;3.07;;
16139;SDS011;8175;49.326;12.690;2023-07-22T05:42:55;4.50;;;3.50;;
16139;SDS011;8175;49.326;12.690;2023-07-22T05:45:21;3.77;;;3.37;;
16139;SDS011;8175;49.326;12.690;2023-07-22T05:47:46;5.00;;;3.20;;
16139;SDS011;8175;49.326;12.690;2023-07-22T05:50:12;3.90;;;3.33;;
16139;SDS011;8175;49.326;12.690;2023-07-22T05:52:38;5.60;;;3.70;;
16139;SDS011;8175;49.326;12.690;2023-07-22T05:55:04;3.93;;;3.27;;
16139;SDS011;8175;49.326;12.690;2023-07-22T05:57:30;3.30;;;2.90;;
16139;SDS011;8175;49.326;12.690;2023-07-22T05:59:56;3.57;;;2.73;;
16139;SDS011;8175;49.326;12.690;2023-07-22T06:02:21;3.73;;;3.00;;
16139;SDS011;8175;49.326;12.690;2023-07-22T06:04:47;4.30;;;2.87;;
16139;SDS011;8175;49.326;12.690;2023-07-22T06:07:13;4.03;;;3.03;;
16139;SDS011;8175;49.326;12.690;2023-07-22T06:09:39;3.30;;;3.00;;
16139;SDS011;8175;49.326;12.690;2023-07-22T06:12:04;3.30;;;3.00;;
16139;SDS011;8175;49.326;12.690;2023-07-22T06:14:30;3.93;;;2.97;;
16139;SDS011;8175;49.326;12.690;2023-07-22T06:16:57;3.60;;;3.30;;
16139;SDS011;8175;49.326;12.690;2023-07-22T06:19:22;3.30;;;3.00;;
16139;SDS011;8175;49.326;12.690;2023-07-22T06:21:50;3.80;;;2.73;;
16139;SDS011;8175;49.326;12.690;2023-07-22T06:24:16;6.17;;;3.43;;
16139;SDS011;8175;49.326;12.690;2023-07-22T06:26:42;3.43;;;3.13;;
16139;SDS011;8175;49.326;12.690;2023-07-22T06:29:07;3.37;;;3.07;;
16139;SDS011;8175;49.326;12.690;2023-07-22T06:31:33;3.90;;;3.10;;
16139;SDS011;8175;49.326;12.690;2023-07-22T06:33:59;5.40;;;3.27;;
16139;SDS011;8175;49.326;12.690;2023-07-22T06:36:25;3.47;;;3.17;;
16139;SDS011;8175;49.326;12.690;2023-07-22T06:38:51;3.63;;;3.20;;
16139;SDS011;8175;49.326;12.690;2023-07-22T06:41:17;3.90;;;3.37;;
16139;SDS011;8175;49.326;12.690;2023-07-22T06:43:44;3.60;;;3.30;;
16139;SDS011;8175;49.326;12.690;2023-07-22T06:46:10;3.67;;;3.37;;
16139;SDS011;8175;49.326;12.690;2023-07-22T06:48:35;3.77;;;3.47;;
16139;SDS011;8175;49.326;12.690;2023-07-22T06:51:01;3.70;;;3.40;;
16139;SDS011;8175;49.326;12.690;2023-07-22T06:53:26;3.40;;;3.10;;
16139;SDS011;8175;49.326;12.690;2023-07-22T06:55:52;4.13;;;3.73;;
16139;SDS011;8175;49.326;12.690;2023-07-22T06:58:18;3.53;;;3.10;;
16139;SDS011;8175;49.326;12.690;2023-07-22T07:00:44;3.47;;;3.17;;
16139;SDS011;8175;49.326;12.690;2023-07-22T07:03:10;3.73;;;3.43;;
16139;SDS011;8175;49.326;12.690;2023-07-22T07:05:36;4.83;;;3.20;;
16139;SDS011;8175;49.326;12.690;2023-07-22T07:08:01;3.43;;;3.13;;
16139;SDS011;8175;49.326;12.690;2023-07-22T07:10:28;3.50;;;3.20;;
16139;SDS011;8175;49.326;12.690;2023-07-22T07:12:54;3.70;;;3.33;;
16139;SDS011;8175;49.326;12.690;2023-07-22T07:15:20;3.57;;;3.03;;
16139;SDS011;8175;49.326;12.690;2023-07-22T07:17:45;3.80;;;3.07;;
16139;SDS011;8175;49.326;12.690;2023-07-22T07:20:13;4.43;;;3.53;;
16139;SDS011;8175;49.326;12.690;2023-07-22T07:22:39;3.60;;;3.17;;
16139;SDS011;8175;49.326;12.690;2023-07-22T07:25:05;3.77;;;3.23;;
16139;SDS011;8175;49.326;12.690;2023-07-22T07:27:31;3.63;;;3.27;;
16139;SDS011;8175;49.326;12.690;2023-07-22T07:29:56;3.53;;;3.07;;
16139;SDS011;8175;49.326;12.690;2023-07-22T07:32:22;3.67;;;3.37;;
16139;SDS011;8175;49.326;12.690;2023-07-22T07:34:49;3.40;;;3.10;;
16139;SDS011;8175;49.326;12.690;2023-07-22T07:37:14;3.50;;;3.00;;
16139;SDS011;8175;49.326;12.690;2023-07-22T07:39:40;3.80;;;3.20;;
16139;SDS011;8175;49.326;12.690;2023-07-22T07:42:05;4.53;;;3.43;;
16139;SDS011;8175;49.326;12.690;2023-07-22T07:44:31;3.70;;;3.40;;
16139;SDS011;8175;49.326;12.690;2023-07-22T07:46:57;3.47;;;3.17;;
16139;SDS011;8175;49.326;12.690;2023-07-22T07:49:22;4.63;;;4.23;;
16139;SDS011;8175;49.326;12.690;2023-07-22T07:51:48;4.10;;;3.43;;
16139;SDS011;8175;49.326;12.690;2023-07-22T07:54:14;3.60;;;2.90;;
16139;SDS011;8175;49.326;12.690;2023-07-22T07:56:39;3.42;;;2.95;;
16139;SDS011;8175;49.326;12.690;2023-07-22T07:59:05;10.23;;;8.13;;
16139;SDS011;8175;49.326;12.690;2023-07-22T08:01:33;3.22;;;2.97;;
16139;SDS011;8175;49.326;12.690;2023-07-22T08:04:00;5.10;;;4.65;;
16139;SDS011;8175;49.326;12.690;2023-07-22T08:06:26;3.20;;;2.88;;
16139;SDS011;8175;49.326;12.690;2023-07-22T08:08:51;2.60;;;2.40;;
16139;SDS011;8175;49.326;12.690;2023-07-22T08:11:18;3.65;;;2.30;;
16139;SDS011;8175;49.326;12.690;2023-07-22T08:13:43;4.68;;;2.90;;
16139;SDS011;8175;49.326;12.690;2023-07-22T08:16:10;2.95;;;2.67;;
16139;SDS011;8175;49.326;12.690;2023-07-22T08:18:37;5.32;;;4.57;;
16139;SDS011;8175;49.326;12.690;2023-07-22T08:21:04;2.72;;;2.50;;
16139;SDS011;8175;49.326;12.690;2023-07-22T08:23:32;4.00;;;2.75;;
16139;SDS011;8175;49.326;12.690;2023-07-22T08:25:57;3.60;;;2.50;;
16139;SDS011;8175;49.326;12.690;2023-07-22T08:28:23;3.03;;;2.53;;
16139;SDS011;8175;49.326;12.690;2023-07-22T08:30:49;2.63;;;2.42;;
16139;SDS011;8175;49.326;12.690;2023-07-22T08:33:14;2.70;;;2.50;;
16139;SDS011;8175;49.326;12.690;2023-07-22T08:35:41;5.45;;;3.35;;
16139;SDS011;8175;49.326;12.690;2023-07-22T08:38:07;3.15;;;2.85;;
16139;SDS011;8175;49.326;12.690;2023-07-22T08:40:34;2.50;;;2.30;;
16139;SDS011;8175;49.326;12.690;2023-07-22T08:43:04;2.92;;;2.72;;
16139;SDS011;8175;49.326;12.690;2023-07-22T08:45:32;2.60;;;2.40;;
16139;SDS011;8175;49.326;12.690;2023-07-22T08:48:01;2.85;;;2.65;;
16139;SDS011;8175;49.326;12.690;2023-07-22T08:50:34;2.78;;;2.42;;
16139;SDS011;8175;49.326;12.690;2023-07-22T08:53:15;3.33;;;3.00;;
16139;SDS011;8175;49.326;12.690;2023-07-22T08:55:42;2.33;;;2.08;;
16139;SDS011;8175;49.326;12.690;2023-07-22T08:58:08;2.75;;;2.10;;
16139;SDS011;8175;49.326;12.690;2023-07-22T09:00:34;2.90;;;2.70;;
16139;SDS011;8175;49.326;12.690;2023-07-22T09:03:01;3.08;;;2.78;;
16139;SDS011;8175;49.326;12.690;2023-07-22T09:05:27;3.00;;;2.13;;
16139;SDS011;8175;49.326;12.690;2023-07-22T09:07:54;3.17;;;2.00;;
16139;SDS011;8175;49.326;12.690;2023-07-22T09:10:21;4.32;;;2.30;;
16139;SDS011;8175;49.326;12.690;2023-07-22T09:12:49;2.60;;;2.40;;
16139;SDS011;8175;49.326;12.690;2023-07-22T09:15:16;2.70;;;2.50;;
16139;SDS011;8175;49.326;12.690;2023-07-22T09:17:43;3.00;;;2.47;;
16139;SDS011;8175;49.326;12.690;2023-07-22T09:20:11;3.70;;;2.20;;
16139;SDS011;8175;49.326;12.690;2023-07-22T09:22:44;2.55;;;2.35;;
16139;SDS011;8175;49.326;12.690;2023-07-22T09:25:22;2.50;;;2.30;;
16139;SDS011;8175;49.326;12.690;2023-07-22T09:27:49;2.28;;;2.08;;
16139;SDS011;8175;49.326;12.690;2023-07-22T09:30:35;3.13;;;2.15;;
16139;SDS011;8175;49.326;12.690;2023-07-22T09:33:06;2.78;;;2.58;;
16139;SDS011;8175;49.326;12.690;2023-07-22T09:35:46;2.40;;;2.13;;
16139;SDS011;8175;49.326;12.690;2023-07-22T09:38:13;2.73;;;2.07;;
16139;SDS011;8175;49.326;12.690;2023-07-22T09:40:40;2.17;;;1.95;;
16139;SDS011;8175;49.326;12.690;2023-07-22T09:43:09;2.67;;;2.25;;
16139;SDS011;8175;49.326;12.690;2023-07-22T09:45:35;3.35;;;2.42;;
16139;SDS011;8175;49.326;12.690;2023-07-22T09:48:03;2.70;;;2.50;;
16139;SDS011;8175;49.326;12.690;2023-07-22T09:50:29;2.75;;;2.47;;
16139;SDS011;8175;49.326;12.690;2023-07-22T09:52:57;2.78;;;1.98;;
16139;SDS011;8175;49.326;12.690;2023-07-22T09:55:28;3.10;;;2.40;;
16139;SDS011;8175;49.326;12.690;2023-07-22T09:57:57;2.47;;;2.28;;
16139;SDS011;8175;49.326;12.690;2023-07-22T10:00:34;2.30;;;2.10;;
16139;SDS011;8175;49.326;12.690;2023-07-22T10:03:01;2.88;;;2.60;;
16139;SDS011;8175;49.326;12.690;2023-07-22T10:05:32;2.70;;;2.50;;
16139;SDS011;8175;49.326;12.690;2023-07-22T10:07:59;2.42;;;2.15;;
16139;SDS011;8175;49.326;12.690;2023-07-22T10:10:26;2.70;;;2.33;;
16139;SDS011;8175;49.326;12.690;2023-07-22T10:12:59;2.78;;;2.50;;
16139;SDS011;8175;49.326;12.690;2023-07-22T10:15:27;3.13;;;2.47;;
16139;SDS011;8175;49.326;12.690;2023-07-22T10:17:55;2.63;;;2.42;;
16139;SDS011;8175;49.326;12.690;2023-07-22T10:20:22;3.92;;;2.65;;
16139;SDS011;8175;49.326;12.690;2023-07-22T10:22:49;3.60;;;2.42;;
16139;SDS011;8175;49.326;12.690;2023-07-22T10:25:16;2.90;;;2.70;;
16139;SDS011;8175;49.326;12.690;2023-07-22T10:27:43;2.78;;;2.25;;
16139;SDS011;8175;49.326;12.690;2023-07-22T10:30:09;2.42;;;2.22;;
16139;SDS011;8175;49.326;12.690;2023-07-22T10:32:38;2.72;;;2.53;;
16139;SDS011;8175;49.326;12.690;2023-07-22T10:35:09;2.70;;;2.42;;
16139;SDS011;8175;49.326;12.690;2023-07-22T10:37:37;3.13;;;2.83;;
16139;SDS011;8175;49.326;12.690;2023-07-22T10:40:25;3.45;;;2.47;;
16139;SDS011;8175;49.326;12.690;2023-07-22T10:43:00;3.47;;;3.13;;
16139;SDS011;8175;49.326;12.690;2023-07-22T10:45:31;3.08;;;2.25;;
16139;SDS011;8175;49.326;12.690;2023-07-22T10:50:44;3.17;;;2.63;;
16139;SDS011;8175;49.326;12.690;2023-07-22T11:14:25;2.78;;;2.55;;
16139;SDS011;8175;49.326;12.690;2023-07-22T11:16:52;4.32;;;2.25;;
16139;SDS011;8175;49.326;12.690;2023-07-22T11:19:19;3.75;;;2.70;;
16139;SDS011;8175;49.326;12.690;2023-07-22T11:21:47;3.28;;;2.97;;
16139;SDS011;8175;49.326;12.690;2023-07-22T11:24:14;2.72;;;2.53;;
16139;SDS011;8175;49.326;12.690;2023-07-22T11:26:40;3.22;;;2.92;;
16139;SDS011;8175;49.326;12.690;2023-07-22T11:29:07;2.55;;;2.35;;
16139;SDS011;8175;49.326;12.690;2023-07-22T11:31:34;4.95;;;2.72;;
16139;SDS011;8175;49.326;12.690;2023-07-22T11:34:08;2.53;;;2.33;;
16139;SDS011;8175;49.326;12.690;2023-07-22T11:36:34;3.30;;;2.75;;
16139;SDS011;8175;49.326;12.690;2023-07-22T11:41:33;4.50;;;2.38;;
16139;SDS011;8175;49.326;12.690;2023-07-22T11:43:59;2.17;;;2.08;;
16139;SDS011;8175;49.326;12.690;2023-07-22T11:46:26;2.30;;;2.10;;
16139;SDS011;8175;49.326;12.690;2023-07-22T11:48:53;2.20;;;2.00;;
16139;SDS011;8175;49.326;12.690;2023-07-22T11:51:20;2.80;;;2.10;;
16139;SDS011;8175;49.326;12.690;2023-07-22T11:53:47;3.45;;;2.05;;
16139;SDS011;8175;49.326;12.690;2023-07-22T11:56:21;2.50;;;2.28;;
16139;SDS011;8175;49.326;12.690;2023-07-22T11:58:51;3.30;;;2.58;;
16139;SDS011;8175;49.326;12.690;2023-07-22T12:01:18;3.00;;;1.98;;
16139;SDS011;8175;49.326;12.690;2023-07-22T12:03:44;2.85;;;1.90;;
16139;SDS011;8175;49.326;12.690;2023-07-22T12:06:11;2.20;;;2.00;;
16139;SDS011;8175;49.326;12.690;2023-07-22T12:08:42;3.35;;;2.40;;
16139;SDS011;8175;49.326;12.690;2023-07-22T12:11:23;2.45;;;2.10;;
16139;SDS011;8175;49.326;12.690;2023-07-22T12:14:04;2.10;;;1.80;;
16139;SDS011;8175;49.326;12.690;2023-07-22T12:16:29;2.00;;;1.85;;
16139;SDS011;8175;49.326;12.690;2023-07-22T12:18:55;2.40;;;2.20;;
16139;SDS011;8175;49.326;12.690;2023-07-22T12:21:21;2.60;;;2.40;;
16139;SDS011;8175;49.326;12.690;2023-07-22T12:23:47;2.25;;;2.03;;
16139;SDS011;8175;49.326;12.690;2023-07-22T12:26:13;2.50;;;2.30;;
16139;SDS011;8175;49.326;12.690;2023-07-22T12:28:38;3.78;;;2.40;;
16139;SDS011;8175;49.326;12.690;2023-07-22T12:31:04;3.65;;;2.13;;
16139;SDS011;8175;49.326;12.690;2023-07-22T12:33:30;2.25;;;2.05;;
16139;SDS011;8175;49.326;12.690;2023-07-22T12:35:56;2.88;;;2.30;;
16139;SDS011;8175;49.326;12.690;2023-07-22T12:38:22;2.53;;;2.15;;
16139;SDS011;8175;49.326;12.690;2023-07-22T12:40:48;2.70;;;2.50;;
16139;SDS011;8175;49.326;12.690;2023-07-22T12:43:14;2.58;;;2.20;;
16139;SDS011;8175;49.326;12.690;2023-07-22T12:45:40;2.30;;;2.10;;
16139;SDS011;8175;49.326;12.690;2023-07-22T12:48:05;2.42;;;2.05;;
16139;SDS011;8175;49.326;12.690;2023-07-22T12:50:32;2.33;;;2.15;;
16139;SDS011;8175;49.326;12.690;2023-07-22T12:52:58;4.60;;;2.20;;
16139;SDS011;8175;49.326;12.690;2023-07-22T12:55:24;1.92;;;1.83;;
16139;SDS011;8175;49.326;12.690;2023-07-22T12:57:50;4.10;;;2.03;;
16139;SDS011;8175;49.326;12.690;2023-07-22T13:00:16;2.20;;;2.00;;
16139;SDS011;8175;49.326;12.690;2023-07-22T13:02:42;2.30;;;2.05;;
16139;SDS011;8175;49.326;12.690;2023-07-22T13:05:08;2.45;;;2.10;;
16139;SDS011;8175;49.326;12.690;2023-07-22T13:07:34;2.40;;;2.20;;
16139;SDS011;8175;49.326;12.690;2023-07-22T13:10:00;3.55;;;2.08;;
16139;SDS011;8175;49.326;12.690;2023-07-22T13:12:28;2.70;;;2.22;;
16139;SDS011;8175;49.326;12.690;2023-07-22T13:14:54;2.20;;;2.00;;
16139;SDS011;8175;49.326;12.690;2023-07-22T13:17:20;2.20;;;2.00;;
16139;SDS011;8175;49.326;12.690;2023-07-22T13:19:46;2.38;;;2.17;;
16139;SDS011;8175;49.326;12.690;2023-07-22T13:22:12;2.55;;;1.98;;
16139;SDS011;8175;49.326;12.690;2023-07-22T13:24:38;2.20;;;2.00;;
16139;SDS011;8175;49.326;12.690;2023-07-22T13:27:04;2.05;;;1.95;;
16139;SDS011;8175;49.326;12.690;2023-07-22T13:29:30;3.50;;;3.20;;
16139;SDS011;8175;49.326;12.690;2023-07-22T13:31:56;2.38;;;2.17;;
16139;SDS011;8175;49.326;12.690;2023-07-22T13:34:21;2.72;;;1.95;;
16139;SDS011;8175;49.326;12.690;2023-07-22T13:36:47;3.03;;;2.20;;
16139;SDS011;8175;49.326;12.690;2023-07-22T13:39:13;2.78;;;2.58;;
16139;SDS011;8175;49.326;12.690;2023-07-22T13:41:38;2.58;;;2.35;;
16139;SDS011;8175;49.326;12.690;2023-07-22T13:44:04;2.63;;;2.00;;
16139;SDS011;8175;49.326;12.690;2023-07-22T13:46:30;1.75;;;1.65;;
16139;SDS011;8175;49.326;12.690;2023-07-22T13:48:56;4.57;;;1.90;;
16139;SDS011;8175;49.326;12.690;2023-07-22T13:51:21;2.40;;;2.20;;
16139;SDS011;8175;49.326;12.690;2023-07-22T13:53:47;2.60;;;2.30;;
16139;SDS011;8175;49.326;12.690;2023-07-22T13:56:13;2.55;;;2.10;;
16139;SDS011;8175;49.326;12.690;2023-07-22T13:58:38;2.10;;;1.90;;
16139;SDS011;8175;49.326;12.690;2023-07-22T14:01:04;3.20;;;2.17;;
16139;SDS011;8175;49.326;12.690;2023-07-22T14:03:29;2.00;;;1.90;;
16139;SDS011;8175;49.326;12.690;2023-07-22T14:05:55;4.30;;;2.28;;
16139;SDS011;8175;49.326;12.690;2023-07-22T14:08:21;2.55;;;2.10;;
16139;SDS011;8175;49.326;12.690;2023-07-22T14:10:47;3.67;;;2.08;;
16139;SDS011;8175;49.326;12.690;2023-07-22T14:13:12;2.20;;;2.00;;
16139;SDS011;8175;49.326;12.690;2023-07-22T14:15:38;1.90;;;1.70;;
16139;SDS011;8175;49.326;12.690;2023-07-22T14:18:04;3.03;;;1.60;;
16139;SDS011;8175;49.326;12.690;2023-07-22T14:20:29;3.38;;;1.80;;
16139;SDS011;8175;49.326;12.690;2023-07-22T14:22:56;2.35;;;2.15;;
16139;SDS011;8175;49.326;12.690;2023-07-22T14:25:22;2.20;;;2.00;;
16139;SDS011;8175;49.326;12.690;2023-07-22T14:27:47;2.40;;;2.20;;
16139;SDS011;8175;49.326;12.690;2023-07-22T14:30:13;2.42;;;2.03;;
16139;SDS011;8175;49.326;12.690;2023-07-22T14:32:39;3.28;;;1.75;;
16139;SDS011;8175;49.326;12.690;2023-07-22T14:35:05;2.35;;;2.00;;
16139;SDS011;8175;49.326;12.690;2023-07-22T14:37:30;2.75;;;2.17;;
16139;SDS011;8175;49.326;12.690;2023-07-22T14:39:56;2.40;;;2.20;;
16139;SDS011;8175;49.326;12.690;2023-07-22T14:42:22;1.75;;;1.65;;
16139;SDS011;8175;49.326;12.690;2023-07-22T14:44:48;2.35;;;2.15;;
16139;SDS011;8175;49.326;12.690;2023-07-22T14:47:13;2.00;;;1.90;;
16139;SDS011;8175;49.326;12.690;2023-07-22T14:49:39;3.30;;;1.90;;
16139;SDS011;8175;49.326;12.690;2023-07-22T14:52:05;1.95;;;1.80;;
16139;SDS011;8175;49.326;12.690;2023-07-22T14:54:31;2.03;;;1.92;;
16139;SDS011;8175;49.326;12.690;2023-07-22T14:56:57;1.92;;;1.83;;
16139;SDS011;8175;49.326;12.690;2023-07-22T14:59:23;3.45;;;2.10;;
16139;SDS011;8175;49.326;12.690;2023-07-22T15:01:48;3.83;;;2.20;;
16139;SDS011;8175;49.326;12.690;2023-07-22T15:04:14;2.00;;;1.80;;
16139;SDS011;8175;49.326;12.690;2023-07-22T15:06:40;3.05;;;2.10;;
16139;SDS011;8175;49.326;12.690;2023-07-22T15:09:05;5.55;;;2.00;;
16139;SDS011;8175;49.326;12.690;2023-07-22T15:11:34;1.92;;;1.83;;
16139;SDS011;8175;49.326;12.690;2023-07-22T15:14:01;1.90;;;1.77;;
16139;SDS011;8175;49.326;12.690;2023-07-22T15:16:27;2.25;;;1.83;;
16139;SDS011;8175;49.326;12.690;2023-07-22T15:18:53;2.83;;;2.20;;
16139;SDS011;8175;49.326;12.690;2023-07-22T15:21:19;2.42;;;1.92;;
16139;SDS011;8175;49.326;12.690;2023-07-22T15:23:44;4.10;;;2.00;;
16139;SDS011;8175;49.326;12.690;2023-07-22T15:26:10;3.25;;;2.10;;
16139;SDS011;8175;49.326;12.690;2023-07-22T15:28:36;2.47;;;2.05;;
16139;SDS011;8175;49.326;12.690;2023-07-22T15:31:01;2.20;;;2.00;;
16139;SDS011;8175;49.326;12.690;2023-07-22T15:33:27;2.67;;;1.88;;
16139;SDS011;8175;49.326;12.690;2023-07-22T15:35:53;2.40;;;1.92;;
16139;SDS011;8175;49.326;12.690;2023-07-22T15:38:19;2.50;;;2.15;;
16139;SDS011;8175;49.326;12.690;2023-07-22T15:40:45;1.95;;;1.80;;
16139;SDS011;8175;49.326;12.690;2023-07-22T15:43:10;2.50;;;2.20;;
16139;SDS011;8175;49.326;12.690;2023-07-22T15:45:36;3.33;;;2.50;;
16139;SDS011;8175;49.326;12.690;2023-07-22T15:48:02;2.58;;;2.20;;
16139;SDS011;8175;49.326;12.690;2023-07-22T15:50:28;3.00;;;2.25;;
16139;SDS011;8175;49.326;12.690;2023-07-22T15:52:53;1.85;;;1.75;;
16139;SDS011;8175;49.326;12.690;2023-07-22T15:55:19;2.75;;;2.22;;
16139;SDS011;8175;49.326;12.690;2023-07-22T15:57:46;2.17;;;1.90;;
16139;SDS011;8175;49.326;12.690;2023-07-22T16:00:12;2.20;;;2.00;;
16139;SDS011;8175;49.326;12.690;2023-07-22T16:02:38;3.25;;;2.00;;
16139;SDS011;8175;49.326;12.690;2023-07-22T16:05:05;2.92;;;2.60;;
16139;SDS011;8175;49.326;12.690;2023-07-22T16:07:32;2.70;;;2.50;;
16139;SDS011;8175;49.326;12.690;2023-07-22T16:09:58;2.03;;;1.90;;
16139;SDS011;8175;49.326;12.690;2023-07-22T16:12:24;3.38;;;2.25;;
16139;SDS011;8175;49.326;12.690;2023-07-22T16:14:51;2.22;;;2.05;;
16139;SDS011;8175;49.326;12.690;2023-07-22T16:17:16;2.00;;;1.80;;
16139;SDS011;8175;49.326;12.690;2023-07-22T16:19:42;2.05;;;1.90;;
16139;SDS011;8175;49.326;12.690;2023-07-22T16:22:07;2.30;;;2.08;;
16139;SDS011;8175;49.326;12.690;2023-07-22T16:24:33;1.90;;;1.80;;
16139;SDS011;8175;49.326;12.690;2023-07-22T16:26:59;2.92;;;1.90;;
16139;SDS011;8175;49.326;12.690;2023-07-22T16:29:25;4.50;;;2.10;;
16139;SDS011;8175;49.326;12.690;2023-07-22T16:31:50;2.83;;;2.10;;
16139;SDS011;8175;49.326;12.690;2023-07-22T16:34:16;1.90;;;1.80;;
16139;SDS011;8175;49.326;12.690;2023-07-22T16:36:43;2.10;;;1.90;;
16139;SDS011;8175;49.326;12.690;2023-07-22T16:39:09;2.10;;;1.90;;
16139;SDS011;8175;49.326;12.690;2023-07-22T16:41:34;2.45;;;2.22;;
16139;SDS011;8175;49.326;12.690;2023-07-22T16:44:00;4.03;;;2.22;;
16139;SDS011;8175;49.326;12.690;2023-07-22T16:46:26;2.08;;;1.85;;
16139;SDS011;8175;49.326;12.690;2023-07-22T16:48:51;3.70;;;1.80;;
16139;SDS011;8175;49.326;12.690;2023-07-22T16:51:17;2.63;;;2.08;;
16139;SDS011;8175;49.326;12.690;2023-07-22T16:53:47;2.20;;;2.00;;
16139;SDS011;8175;49.326;12.690;2023-07-22T16:56:14;2.20;;;2.00;;
16139;SDS011;8175;49.326;12.690;2023-07-22T16:58:40;4.63;;;2.15;;
16139;SDS011;8175;49.326;12.690;2023-07-22T17:01:05;2.17;;;1.98;;
16139;SDS011;8175;49.326;12.690;2023-07-22T17:03:33;2.03;;;1.83;;
16139;SDS011;8175;49.326;12.690;2023-07-22T17:05:59;4.47;;;2.13;;
16139;SDS011;8175;49.326;12.690;2023-07-22T17:08:25;2.97;;;2.25;;
16139;SDS011;8175;49.326;12.690;2023-07-22T17:10:51;2.38;;;2.00;;
16139;SDS011;8175;49.326;12.690;2023-07-22T17:13:17;2.58;;;2.38;;
16139;SDS011;8175;49.326;12.690;2023-07-22T17:15:42;2.90;;;2.25;;
16139;SDS011;8175;49.326;12.690;2023-07-22T17:18:08;2.97;;;2.10;;
16139;SDS011;8175;49.326;12.690;2023-07-22T17:20:33;3.83;;;1.92;;
16139;SDS011;8175;49.326;12.690;2023-07-22T17:22:59;3.58;;;2.15;;
16139;SDS011;8175;49.326;12.690;2023-07-22T17:25:25;2.38;;;2.17;;
16139;SDS011;8175;49.326;12.690;2023-07-22T17:27:50;2.42;;;2.10;;
16139;SDS011;8175;49.326;12.690;2023-07-22T17:30:17;2.40;;;2.03;;
16139;SDS011;8175;49.326;12.690;2023-07-22T17:32:43;1.77;;;1.67;;
16139;SDS011;8175;49.326;12.690;2023-07-22T17:35:11;2.80;;;2.00;;
16139;SDS011;8175;49.326;12.690;2023-07-22T17:37:37;2.88;;;2.10;;
16139;SDS011;8175;49.326;12.690;2023-07-22T17:40:03;2.95;;;2.40;;
16139;SDS011;8175;49.326;12.690;2023-07-22T17:42:29;1.90;;;1.80;;
16139;SDS011;8175;49.326;12.690;2023-07-22T17:44:54;1.80;;;1.70;;
16139;SDS011;8175;49.326;12.690;2023-07-22T17:47:20;3.65;;;3.35;;
16139;SDS011;8175;49.326;12.690;2023-07-22T17:49:46;3.50;;;3.20;;
16139;SDS011;8175;49.326;12.690;2023-07-22T17:52:11;3.35;;;3.05;;
16139;SDS011;8175;49.326;12.690;2023-07-22T17:54:37;6.20;;;5.03;;
16139;SDS011;8175;49.326;12.690;2023-07-22T17:57:03;2.08;;;1.95;;
16139;SDS011;8175;49.326;12.690;2023-07-22T17:59:29;2.58;;;1.98;;
16139;SDS011;8175;49.326;12.690;2023-07-22T18:01:54;2.40;;;2.10;;
16139;SDS011;8175;49.326;12.690;2023-07-22T18:04:20;2.20;;;1.90;;
16139;SDS011;8175;49.326;12.690;2023-07-22T18:06:45;2.37;;;2.17;;
16139;SDS011;8175;49.326;12.690;2023-07-22T18:09:11;2.93;;;2.40;;
16139;SDS011;8175;49.326;12.690;2023-07-22T18:11:37;1.83;;;1.73;;
16139;SDS011;8175;49.326;12.690;2023-07-22T18:14:02;2.27;;;2.07;;
16139;SDS011;8175;49.326;12.690;2023-07-22T18:16:28;2.00;;;1.80;;
16139;SDS011;8175;49.326;12.690;2023-07-22T18:18:54;2.20;;;2.00;;
16139;SDS011;8175;49.326;12.690;2023-07-22T18:21:19;2.00;;;1.90;;
16139;SDS011;8175;49.326;12.690;2023-07-22T18:23:45;2.87;;;2.30;;
16139;SDS011;8175;49.326;12.690;2023-07-22T18:26:10;2.50;;;2.07;;
16139;SDS011;8175;49.326;12.690;2023-07-22T18:28:37;2.07;;;1.63;;
16139;SDS011;8175;49.326;12.690;2023-07-22T18:31:02;2.83;;;2.00;;
16139;SDS011;8175;49.326;12.690;2023-07-22T18:33:28;2.30;;;2.03;;
16139;SDS011;8175;49.326;12.690;2023-07-22T18:35:54;3.13;;;1.90;;
16139;SDS011;8175;49.326;12.690;2023-07-22T18:38:19;2.37;;;1.90;;
16139;SDS011;8175;49.326;12.690;2023-07-22T18:40:45;2.27;;;2.07;;
16139;SDS011;8175;49.326;12.690;2023-07-22T18:43:12;2.30;;;2.10;;
16139;SDS011;8175;49.326;12.690;2023-07-22T18:45:37;2.03;;;1.70;;
16139;SDS011;8175;49.326;12.690;2023-07-22T18:48:03;1.90;;;1.80;;
16139;SDS011;8175;49.326;12.690;2023-07-22T18:50:30;2.97;;;2.10;;
16139;SDS011;8175;49.326;12.690;2023-07-22T18:52:57;3.03;;;2.20;;
16139;SDS011;8175;49.326;12.690;2023-07-22T18:55:25;3.07;;;2.03;;
16139;SDS011;8175;49.326;12.690;2023-07-22T18:57:51;2.80;;;2.50;;
16139;SDS011;8175;49.326;12.690;2023-07-22T19:00:16;2.10;;;1.90;;
16139;SDS011;8175;49.326;12.690;2023-07-22T19:02:43;2.43;;;2.10;;
16139;SDS011;8175;49.326;12.690;2023-07-22T19:05:09;2.00;;;1.77;;
16139;SDS011;8175;49.326;12.690;2023-07-22T19:07:34;3.10;;;2.10;;
16139;SDS011;8175;49.326;12.690;2023-07-22T19:10:00;2.50;;;1.97;;
16139;SDS011;8175;49.326;12.690;2023-07-22T19:12:26;3.03;;;2.40;;
16139;SDS011;8175;49.326;12.690;2023-07-22T19:14:52;2.20;;;2.00;;
16139;SDS011;8175;49.326;12.690;2023-07-22T19:17:18;2.67;;;2.47;;
16139;SDS011;8175;49.326;12.690;2023-07-22T19:19:44;2.07;;;1.90;;
16139;SDS011;8175;49.326;12.690;2023-07-22T19:22:10;3.83;;;2.63;;